Time;durP1;ratioP1;P1;durP2;ratioP2;P2;SDS_P1;SDS_P2;PMS_P1;PMS_P2;Temp;Humidity;BMP_temperature;BMP_pressure;BME280_temperature;BME280_humidity;BME280_pressure;Samples;Min_cycle;Max_cycle;Signal;HPM_P1;HPM_P2
2022/08/23 00:01:37;;;;;;;;;;;;;;;21.28;81.90;99872.50;5360304;32;34189;-74
2022/08/23 00:04:40;;;;;;;;;;;;;;;21.10;82.88;99869.66;5387433;32;37689;-73
2022/08/23 00:08:02;;;;;;;;;;;;;;;20.78;85.52;99868.06;5368236;32;35112;-69
2022/08/23 00:11:04;;;;;;;;;;;;;;;20.73;85.93;99872.13;5372637;32;34339;-69
2022/08/23 00:14:26;;;;;;;;;;;;;;;21.15;84.18;99864.75;5387861;32;34954;-68
2022/08/23 00:17:28;;;;;;;;;;;;;;;21.61;80.63;99872.06;5379547;32;34423;-72
2022/08/23 00:20:35;;;;;;;;;;;;;;;21.37;81.67;99869.81;5396249;32;34252;-72
2022/08/23 00:23:37;;;;;;;;;;;;;;;21.75;79.39;99859.22;5379069;32;34147;-71
2022/08/23 00:26:48;;;;;;;;;;;;;;;21.59;79.43;99859.84;5388800;32;34273;-68
2022/08/23 00:29:52;;;;;;;;;;;;;;;21.54;80.03;99862.09;5396490;32;34955;-69
2022/08/23 00:32:54;;;;;;;;;;;;;;;20.71;84.77;99860.75;5374716;32;34945;-73
2022/08/23 00:35:58;;;;;;;;;;;;;;;21.21;83.13;99868.69;5384462;32;34738;-73
2022/08/23 00:39:00;;;;;;;;;;;;;;;20.98;84.38;99863.59;5380575;32;35267;-73
2022/08/23 00:49:12;;;;;;;;;;;;;;;21.93;77.85;99862.00;5375683;32;35769;-68
2022/08/23 00:52:21;;;;;;;;;;;;;;;21.63;77.89;99870.09;5385564;32;35007;-73
2022/08/23 00:55:23;;;;;;;;;;;;;;;21.47;79.54;99875.19;5377220;32;34625;-69
2022/08/23 00:58:25;;;;;;;;;;;;;;;21.13;81.46;99884.59;5375581;32;34879;-73
2022/08/23 01:01:27;;;;;;;;;;;;;;;20.96;82.87;99889.63;5372836;32;34311;-72
2022/08/23 01:04:30;;;;;;;;;;;;;;;20.74;85.24;99889.88;5354133;32;813382;-67
2022/08/23 01:07:38;;;;;;;;;;;;;;;20.96;84.24;99886.94;5389261;32;34692;-67
2022/08/23 01:10:41;;;;;;;;;;;;;;;21.54;80.93;99895.03;5377813;32;45795;-73
2022/08/23 01:13:47;;;;;;;;;;;;;;;21.23;80.77;99890.78;5393082;32;35077;-68
2022/08/23 01:16:52;;;;;;;;;;;;;;;21.49;79.51;99896.44;5379389;32;34925;-68
2022/08/23 01:19:55;;;;;;;;;;;;;;;21.12;82.03;99898.91;5368768;32;35750;-68
2022/08/23 01:22:57;;;;;;;;;;;;;;;21.38;81.03;99894.72;5398807;32;34672;-73
2022/08/23 01:25:59;;;;;;;;;;;;;;;21.44;79.99;99902.19;5374534;32;35335;-73
2022/08/23 01:29:02;;;;;;;;;;;;;;;21.57;79.08;99897.38;5385071;32;34634;-68
2022/08/23 01:32:04;;;;;;;;;;;;;;;21.74;79.27;99906.53;5374260;32;34202;-71
2022/08/23 01:35:06;;;;;;;;;;;;;;;21.66;80.64;99909.09;5391042;32;34865;-72
2022/08/23 01:38:09;;;;;;;;;;;;;;;21.29;82.54;99911.63;5365044;32;34519;-74
2022/08/23 01:41:11;;;;;;;;;;;;;;;21.40;80.67;99914.16;5386803;32;44938;-68
2022/08/23 01:44:13;;;;;;;;;;;;;;;21.38;80.83;99910.75;5396723;32;34611;-74
2022/08/23 01:47:16;;;;;;;;;;;;;;;21.18;82.88;99914.38;5374894;32;34591;-69
2022/08/23 01:50:18;;;;;;;;;;;;;;;21.35;81.83;99916.41;5390777;32;34296;-69
2022/08/23 01:53:20;;;;;;;;;;;;;;;21.18;82.36;99917.06;5376690;32;35238;-72
2022/08/23 01:56:21;;;;;;;;;;;;;;;22.16;77.82;99912.41;5387821;32;35076;-73
2022/08/23 01:59:39;;;;;;;;;;;;;;;21.54;79.63;99918.25;5379758;32;34867;-69
2022/08/23 02:02:42;;;;;;;;;;;;;;;22.09;77.76;99919.31;5349259;32;44557;-69
2022/08/23 02:05:44;;;;;;;;;;;;;;;21.16;82.79;99927.06;5396884;32;35038;-69
2022/08/23 02:09:01;;;;;;;;;;;;;;;20.80;85.54;99924.87;5383304;32;34641;-74
2022/08/23 02:12:04;;;;;;;;;;;;;;;21.40;83.41;99927.53;5389138;32;34211;-71
2022/08/23 02:15:06;;;;;;;;;;;;;;;21.08;84.13;99923.25;5366604;32;34233;-68
2022/08/23 02:18:09;;;;;;;;;;;;;;;21.25;82.26;99931.53;5376291;32;34172;-68
2022/08/23 02:21:14;;;;;;;;;;;;;;;21.59;80.63;99927.53;5387139;32;44632;-73
2022/08/23 02:24:17;;;;;;;;;;;;;;;21.32;82.29;99932.75;5376013;32;34901;-67
2022/08/23 02:27:19;;;;;;;;;;;;;;;22.07;78.22;99929.28;5382579;32;35505;-68
2022/08/23 02:30:21;;;;;;;;;;;;;;;22.33;76.53;99924.16;5367986;32;34889;-72
2022/08/23 02:33:23;;;;;;;;;;;;;;;21.79;78.17;99931.03;5391728;32;34402;-69
2022/08/23 02:36:25;;;;;;;;;;;;;;;21.44;80.43;99934.25;5379787;32;35512;-74
2022/08/23 02:39:29;;;;;;;;;;;;;;;21.49;80.49;99940.03;5377678;32;34804;-69
2022/08/23 02:42:30;;;;;;;;;;;;;;;21.94;79.02;99933.25;5388653;32;34883;-69
2022/08/23 02:45:33;;;;;;;;;;;;;;;22.10;77.08;99941.56;5379174;32;34910;-75
2022/08/23 02:48:35;;;;;;;;;;;;;;;22.04;77.32;99937.59;5398699;32;34314;-73
2022/08/23 02:51:38;;;;;;;;;;;;;;;21.47;80.75;99952.72;5375731;32;34294;-71
2022/08/23 02:54:40;;;;;;;;;;;;;;;21.34;80.84;99954.81;5391366;32;35886;-68
2022/08/23 02:57:42;;;;;;;;;;;;;;;21.65;79.41;99960.88;5366210;32;34809;-68
2022/08/23 03:00:47;;;;;;;;;;;;;;;21.27;82.77;99959.00;5368144;32;35157;-73
2022/08/23 03:03:49;;;;;;;;;;;;;;;21.34;81.63;99962.84;5378930;32;34946;-68
2022/08/23 03:06:51;;;;;;;;;;;;;;;22.01;78.73;99955.75;5380476;32;34950;-73
2022/08/23 03:09:53;;;;;;;;;;;;;;;21.88;78.57;99954.22;5391395;32;34684;-73
2022/08/23 03:12:55;;;;;;;;;;;;;;;21.75;78.27;99958.19;5371602;32;34905;-69
2022/08/23 03:15:57;;;;;;;;;;;;;;;21.26;82.82;99960.00;5387581;32;35358;-73
2022/08/23 03:19:01;;;;;;;;;;;;;;;21.86;79.40;99966.06;5382031;32;35580;-73
2022/08/23 03:22:02;;;;;;;;;;;;;;;21.77;80.16;99966.94;5373506;32;34867;-72
2022/08/23 03:25:05;;;;;;;;;;;;;;;21.88;79.19;99967.59;5395380;32;35078;-72
2022/08/23 03:28:07;;;;;;;;;;;;;;;21.80;79.81;99970.16;5369427;32;34864;-68
2022/08/23 03:31:08;;;;;;;;;;;;;;;21.87;80.05;99979.31;5410520;32;35100;-68
2022/08/23 03:34:11;;;;;;;;;;;;;;;21.83;79.72;99974.38;5377183;32;44566;-72
2022/08/23 03:37:13;;;;;;;;;;;;;;;21.40;83.32;99978.31;5384525;32;35037;-73
2022/08/23 03:40:15;;;;;;;;;;;;;;;21.52;84.06;99982.56;5383436;32;34880;-70
2022/08/23 03:43:17;;;;;;;;;;;;;;;21.97;79.73;99981.97;5374288;32;35420;-73
2022/08/23 03:46:22;;;;;;;;;;;;;;;21.41;83.76;99980.00;5385939;32;34481;-72
2022/08/23 03:49:24;;;;;;;;;;;;;;;21.68;81.96;99976.63;5379842;32;35007;-72
2022/08/23 03:52:26;;;;;;;;;;;;;;;21.85;80.88;99978.59;5385834;32;35136;-68
2022/08/23 03:55:28;;;;;;;;;;;;;;;22.84;75.36;99981.75;5368040;32;35228;-68
2022/08/23 03:58:30;;;;;;;;;;;;;;;22.77;74.62;99980.66;5376226;32;34862;-68
2022/08/23 04:01:32;;;;;;;;;;;;;;;21.89;78.72;99989.84;5368296;32;36632;-73
2022/08/23 04:04:34;;;;;;;;;;;;;;;21.77;80.78;99989.19;5365759;32;34344;-73
2022/08/23 04:07:37;;;;;;;;;;;;;;;21.98;79.92;99998.88;5384264;32;34321;-68
2022/08/23 04:10:39;;;;;;;;;;;;;;;21.47;81.71;100006.19;5372939;32;35027;-73
2022/08/23 04:13:41;;;;;;;;;;;;;;;22.73;76.04;100005.19;5388931;32;44321;-74
2022/08/23 04:16:43;;;;;;;;;;;;;;;22.74;75.52;100010.44;5370616;32;34384;-73
2022/08/23 04:19:45;;;;;;;;;;;;;;;22.33;76.71;100011.66;5380021;32;34564;-73
2022/08/23 04:22:50;;;;;;;;;;;;;;;22.25;78.89;100001.69;5380894;32;35721;-68
2022/08/23 04:25:52;;;;;;;;;;;;;;;22.91;73.86;100004.28;5369808;32;34925;-72
2022/08/23 04:28:54;;;;;;;;;;;;;;;22.98;73.32;100000.03;5381517;32;34732;-73
2022/08/23 04:31:56;;;;;;;;;;;;;;;23.03;73.03;100004.09;5373723;32;34995;-68
2022/08/23 04:34:58;;;;;;;;;;;;;;;22.54;75.00;100006.97;5392806;32;34852;-68
2022/08/23 04:38:00;;;;;;;;;;;;;;;23.02;72.74;100007.78;5361724;32;34187;-68
2022/08/23 04:44:23;;;;;;;;;;;;;;;22.85;73.11;100006.69;5392085;32;35155;-73
2022/08/23 04:47:25;;;;;;;;;;;;;;;22.96;72.16;100017.25;5368098;32;34555;-68
2022/08/23 04:50:27;;;;;;;;;;;;;;;22.65;73.50;100020.16;5394866;32;35491;-68
2022/08/23 04:53:31;;;;;;;;;;;;;;;22.33;76.63;100025.03;5377791;32;35112;-73
2022/08/23 04:56:33;;;;;;;;;;;;;;;22.28;77.35;100029.97;5393676;32;34668;-68
2022/08/23 04:59:35;;;;;;;;;;;;;;;23.06;72.59;100023.44;5370259;32;34405;-73
2022/08/23 05:02:37;;;;;;;;;;;;;;;22.99;73.36;100030.34;5348588;32;34962;-72
2022/08/23 05:05:40;;;;;;;;;;;;;;;22.97;73.00;100033.19;5401035;32;34739;-68
2022/08/23 05:08:42;;;;;;;;;;;;;;;23.26;71.71;100039.41;5373030;32;44854;-73
2022/08/23 05:11:44;;;;;;;;;;;;;;;23.40;70.28;100036.22;5393048;32;36345;-73
2022/08/23 05:14:46;;;;;;;;;;;;;;;23.46;70.19;100036.44;5378576;32;34781;-68
2022/08/23 05:17:48;;;;;;;;;;;;;;;23.35;70.30;100036.66;5390027;32;34721;-68
2022/08/23 05:20:50;;;;;;;;;;;;;;;23.14;71.57;100038.75;5386746;32;35427;-68
2022/08/23 05:23:52;;;;;;;;;;;;;;;23.02;72.80;100031.91;5379161;32;34883;-70
2022/08/23 05:26:55;;;;;;;;;;;;;;;23.13;71.91;100040.59;5395785;32;34265;-70
2022/08/23 05:29:57;;;;;;;;;;;;;;;23.62;68.04;100041.16;5382400;32;35493;-73
2022/08/23 05:32:59;;;;;;;;;;;;;;;23.99;65.31;100051.75;5391850;32;34275;-70
2022/08/23 05:36:03;;;;;;;;;;;;;;;23.65;67.73;100050.75;5373967;32;35051;-71
2022/08/23 05:39:05;;;;;;;;;;;;;;;23.74;68.26;100045.31;5390956;32;35529;-71
2022/08/23 05:42:08;;;;;;;;;;;;;;;23.84;67.85;100064.03;5387923;32;34198;-68
2022/08/23 05:45:09;;;;;;;;;;;;;;;24.00;66.76;100066.84;5381162;32;35473;-67
2022/08/23 05:48:14;;;;;;;;;;;;;;;23.32;69.20;100071.00;5386444;32;34384;-71
2022/08/23 05:51:23;;;;;;;;;;;;;;;23.80;67.14;100075.22;5388878;32;34886;-73
2022/08/23 05:54:25;;;;;;;;;;;;;;;23.97;67.04;100077.06;5384208;32;36471;-70
2022/08/23 05:57:27;;;;;;;;;;;;;;;23.27;69.21;100081.31;5374353;32;35680;-71
2022/08/23 06:00:28;;;;;;;;;;;;;;;23.86;67.43;100088.88;5378015;32;34381;-75
2022/08/23 06:03:41;;;;;;;;;;;;;;;23.78;66.92;100086.12;5371291;32;45530;-73
2022/08/23 06:06:43;;;;;;;;;;;;;;;23.23;69.43;100083.44;5375898;32;34377;-75
2022/08/23 06:09:45;;;;;;;;;;;;;;;23.61;68.45;100092.25;5386478;32;35527;-70
2022/08/23 06:12:47;;;;;;;;;;;;;;;23.92;67.02;100096.31;5373994;32;35505;-78
2022/08/23 06:15:50;;;;;;;;;;;;;;;23.28;69.20;100101.75;5386865;32;35658;-84
2022/08/23 06:18:52;;;;;;;;;;;;;;;23.89;66.90;100112.69;5371674;32;35573;-74
2022/08/23 06:21:54;;;;;;;;;;;;;;;23.78;67.25;100107.56;5376586;32;34204;-76
2022/08/23 06:24:56;;;;;;;;;;;;;;;23.58;68.45;100106.81;5398268;32;36902;-81
2022/08/23 06:27:58;;;;;;;;;;;;;;;23.64;68.12;100110.78;5382344;32;34044;-72
2022/08/23 06:31:00;;;;;;;;;;;;;;;23.43;69.12;100111.81;5393444;32;34101;-74
2022/08/23 06:34:02;;;;;;;;;;;;;;;23.74;67.91;100117.75;5376135;32;35299;-70
2022/08/23 06:37:05;;;;;;;;;;;;;;;23.75;66.94;100118.59;5391489;32;35093;-74
2022/08/23 06:40:08;;;;;;;;;;;;;;;23.57;67.78;100121.25;5388249;32;34419;-69
2022/08/23 06:43:10;;;;;;;;;;;;;;;23.15;70.48;100128.91;5371802;32;46535;-73
2022/08/23 06:46:19;;;;;;;;;;;;;;;23.44;68.81;100118.03;5392719;32;35790;-69
2022/08/23 06:49:24;;;;;;;;;;;;;;;23.66;67.85;100117.66;5372417;32;35607;-70
2022/08/23 06:52:27;;;;;;;;;;;;;;;23.97;66.70;100130.75;5386098;32;35881;-67
2022/08/23 06:55:30;;;;;;;;;;;;;;;24.06;66.37;100124.47;5378271;32;35931;-72
2022/08/23 06:58:32;;;;;;;;;;;;;;;24.41;64.74;100125.47;5382740;32;35251;-70
2022/08/23 07:01:36;;;;;;;;;;;;;;;23.81;66.34;100133.25;5361316;32;35471;-72
2022/08/23 07:04:52;;;;;;;;;;;;;;;23.85;67.86;100123.91;5371843;32;46139;-76
2022/08/23 07:07:54;;;;;;;;;;;;;;;24.24;64.26;100130.69;5390180;32;34405;-72
2022/08/23 07:10:57;;;;;;;;;;;;;;;24.80;62.70;100126.78;5382292;32;35472;-79
2022/08/23 07:13:59;;;;;;;;;;;;;;;24.45;63.94;100141.13;5383662;32;34455;-69
2022/08/23 07:17:02;;;;;;;;;;;;;;;25.35;59.19;100133.66;5382177;32;35341;-78
2022/08/23 07:20:04;;;;;;;;;;;;;;;24.42;62.91;100144.12;5392978;32;34238;-75
2022/08/23 07:23:06;;;;;;;;;;;;;;;24.30;63.61;100145.34;5390308;32;34455;-85
2022/08/23 07:26:09;;;;;;;;;;;;;;;23.99;64.24;100148.38;5383884;32;34327;-75
2022/08/23 07:29:11;;;;;;;;;;;;;;;24.28;63.81;100144.63;5394714;32;44598;-81
2022/08/23 07:32:14;;;;;;;;;;;;;;;25.07;60.49;100141.09;5379203;32;34022;-74
2022/08/23 07:35:21;;;;;;;;;;;;;;;25.07;59.52;100138.41;5388813;32;34610;-70
2022/08/23 07:38:23;;;;;;;;;;;;;;;24.72;61.31;100142.84;5390039;32;34131;-76
2022/08/23 07:41:31;;;;;;;;;;;;;;;24.55;61.46;100149.09;5387064;32;34105;-75
2022/08/23 07:44:33;;;;;;;;;;;;;;;24.84;61.25;100143.44;5383441;32;34394;-69
2022/08/23 07:47:37;;;;;;;;;;;;;;;24.88;60.93;100152.87;5383936;32;34075;-70
2022/08/23 07:50:39;;;;;;;;;;;;;;;25.46;59.13;100152.22;5390701;32;34243;-74
2022/08/23 07:53:55;;;;;;;;;;;;;;;25.37;59.01;100147.78;5369115;32;34258;-72
2022/08/23 07:56:57;;;;;;;;;;;;;;;26.18;55.33;100147.25;5380295;32;34397;-73
2022/08/23 07:59:59;;;;;;;;;;;;;;;27.27;53.24;100145.00;5379629;32;36278;-71
2022/08/23 08:03:01;;;;;;;;;;;;;;;28.31;49.54;100140.28;5357466;32;35407;-73
2022/08/23 08:06:07;;;;;;;;;;;;;;;29.16;46.55;100139.16;5386610;32;34186;-73
2022/08/23 08:09:09;;;;;;;;;;;;;;;28.13;50.03;100137.84;5373916;32;34309;-77
2022/08/23 08:12:11;;;;;;;;;;;;;;;30.06;43.45;100128.03;5389043;32;44686;-72
2022/08/23 08:15:13;;;;;;;;;;;;;;;30.65;42.11;100117.75;5380828;32;34315;-73
2022/08/23 08:18:15;;;;;;;;;;;;;;;28.61;46.53;100149.34;5377742;32;34279;-71
2022/08/23 08:21:18;;;;;;;;;;;;;;;28.95;45.84;100140.75;5391334;32;34338;-71
2022/08/23 08:24:20;;;;;;;;;;;;;;;30.79;41.87;100137.72;5377503;32;35661;-88
2022/08/23 08:27:22;;;;;;;;;;;;;;;28.99;45.66;100142.06;5389113;32;34577;-71
2022/08/23 08:30:24;;;;;;;;;;;;;;;27.14;50.63;100149.25;5384098;32;34523;-74
2022/08/23 08:33:27;;;;;;;;;;;;;;;27.47;49.31;100152.69;5392392;32;34356;-72
2022/08/23 08:36:34;;;;;;;;;;;;;;;27.68;47.87;100162.87;5371925;32;34342;-78
2022/08/23 08:39:41;;;;;;;;;;;;;;;29.76;43.45;100159.78;5379860;32;35194;-72
2022/08/23 08:43:06;;;;;;;;;;;;;;;28.59;45.55;100167.56;5382408;32;44718;-72
2022/08/23 08:46:11;;;;;;;;;;;;;;;27.55;48.52;100168.84;5379205;32;34960;-72
2022/08/23 08:49:16;;;;;;;;;;;;;;;27.19;50.37;100174.72;5395520;32;45146;-75
2022/08/23 08:52:21;;;;;;;;;;;;;;;27.05;51.19;100179.91;5379596;32;34297;-73
2022/08/23 08:55:24;;;;;;;;;;;;;;;26.61;52.99;100180.31;5387653;32;34217;-76
2022/08/23 08:58:40;;;;;;;;;;;;;;;27.68;49.47;100177.25;5387885;32;35492;-71
2022/08/23 09:01:42;;;;;;;;;;;;;;;26.38;53.19;100180.94;5361260;32;44552;-72
2022/08/23 09:04:44;;;;;;;;;;;;;;;27.86;48.55;100177.00;5384612;32;35295;-71
2022/08/23 09:08:05;;;;;;;;;;;;;;;26.61;52.33;100180.31;5366323;32;37076;-72
2022/08/23 09:11:10;;;;;;;;;;;;;;;26.27;53.40;100180.41;5390844;32;34304;-72
2022/08/23 09:14:18;;;;;;;;;;;;;;;27.98;48.03;100172.87;5379463;32;43698;-68
2022/08/23 09:17:38;;;;;;;;;;;;;;;27.84;48.53;100178.22;5381816;32;34121;-75
2022/08/23 09:20:41;;;;;;;;;;;;;;;27.95;48.03;100178.66;5390620;32;44791;-73
2022/08/23 09:23:44;;;;;;;;;;;;;;;27.86;48.70;100177.00;5374260;32;37977;-73
2022/08/23 09:26:46;;;;;;;;;;;;;;;28.02;47.72;100173.38;5397176;32;34185;-72
2022/08/23 09:29:55;;;;;;;;;;;;;;;28.11;46.06;100171.47;5382631;32;34360;-73
2022/08/23 09:32:56;;;;;;;;;;;;;;;28.14;46.17;100163.81;5376433;32;34629;-70
2022/08/23 09:36:01;;;;;;;;;;;;;;;30.17;41.90;100157.38;5385205;32;36427;-72
2022/08/23 09:39:07;;;;;;;;;;;;;;;28.92;44.63;100179.00;5375801;32;34124;-73
2022/08/23 09:42:28;;;;;;;;;;;;;;;29.38;43.70;100171.56;5390842;32;34238;-74
2022/08/23 09:45:34;;;;;;;;;;;;;;;29.60;43.16;100174.38;5370914;32;35343;-69
2022/08/23 09:48:40;;;;;;;;;;;;;;;30.52;41.15;100171.03;5380341;32;34295;-73
2022/08/23 09:51:46;;;;;;;;;;;;;;;32.52;36.36;100169.22;5397864;32;44557;-75
2022/08/23 09:54:58;;;;;;;;;;;;;;;30.79;39.63;100167.56;5370296;32;34357;-75
2022/08/23 09:58:01;;;;;;;;;;;;;;;33.91;33.34;100155.41;5405670;32;34263;-69
2022/08/23 10:01:08;;;;;;;;;;;;;;;33.50;33.25;100163.94;5362733;32;35166;-70
2022/08/23 10:04:14;;;;;;;;;;;;;;;31.75;37.04;100156.84;5379052;32;35346;-64
2022/08/23 10:07:23;;;;;;;;;;;;;;;29.78;41.69;100168.56;5386033;32;36316;-76
2022/08/23 10:10:28;;;;;;;;;;;;;;;31.68;36.68;100166.88;5381133;32;35525;-68
2022/08/23 10:13:30;;;;;;;;;;;;;;;30.22;39.42;100163.06;5383824;32;35148;-70
2022/08/23 10:16:38;;;;;;;;;;;;;;;31.06;37.79;100168.59;5381483;32;34984;-75
2022/08/23 10:19:50;;;;;;;;;;;;;;;29.44;40.96;100167.28;5385600;32;44371;-75
2022/08/23 10:22:54;;;;;;;;;;;;;;;30.10;39.26;100173.56;5380941;32;36259;-75
2022/08/23 10:25:57;;;;;;;;;;;;;;;29.01;41.56;100177.88;5372452;32;33158;-71
2022/08/23 10:29:37;;;;;;;;;;;;;;;30.08;39.37;100164.75;5380580;32;33942;-75
2022/08/23 10:32:39;;;;;;;;;;;;;;;31.36;37.43;100171.09;5374390;32;34112;-71
2022/08/23 10:35:50;;;;;;;;;;;;;;;31.80;36.53;100168.00;5398052;32;44231;-76
2022/08/23 10:38:56;;;;;;;;;;;;;;;31.93;35.79;100156.34;5380836;32;34551;-71
2022/08/23 10:42:05;;;;;;;;;;;;;;;31.78;36.72;100167.34;5378398;32;35478;-75
2022/08/23 10:45:11;;;;;;;;;;;;;;;33.59;32.84;100154.47;5389249;32;34467;-73
2022/08/23 10:48:28;;;;;;;;;;;;;;;32.21;34.95;100162.47;5369943;32;47151;-82
2022/08/23 10:51:32;;;;;;;;;;;;;;;30.95;37.45;100164.53;5385250;32;34366;-76
2022/08/23 10:54:45;;;;;;;;;;;;;;;33.96;31.89;100158.31;5382106;32;34126;-78
2022/08/23 10:57:47;;;;;;;;;;;;;;;31.25;36.03;100164.38;5371161;32;42962;-69
2022/08/23 11:00:49;;;;;;;;;;;;;;;31.04;37.15;100159.78;5377068;32;35578;-70
2022/08/23 11:03:55;;;;;;;;;;;;;;;32.42;34.67;100160.66;5368767;32;34323;-71
2022/08/23 11:06:58;;;;;;;;;;;;;;;31.60;36.27;100165.16;5381203;32;34338;-72
2022/08/23 11:10:06;;;;;;;;;;;;;;;31.59;36.29;100158.06;5378501;32;34316;-70
2022/08/23 11:13:21;;;;;;;;;;;;;;;30.50;38.21;100162.25;5378080;32;44714;-71
2022/08/23 11:16:25;;;;;;;;;;;;;;;29.42;40.50;100155.78;5387297;32;36113;-71
2022/08/23 11:19:53;;;;;;;;;;;;;;;29.59;40.09;100160.00;5374792;32;35507;-66
2022/08/23 11:22:55;;;;;;;;;;;;;;;29.07;41.12;100166.31;5382681;32;34207;-70
2022/08/23 11:25:57;;;;;;;;;;;;;;;28.02;43.56;100162.59;5379484;32;35562;-69
2022/08/23 11:29:05;;;;;;;;;;;;;;;28.37;43.43;100163.88;5376696;32;35223;-81
2022/08/23 11:32:10;;;;;;;;;;;;;;;30.72;38.60;100144.94;5396693;32;37320;-66
2022/08/23 11:35:46;;;;;;;;;;;;;;;33.54;32.76;100135.19;5378118;32;45541;-69
2022/08/23 11:38:48;;;;;;;;;;;;;;;34.00;31.49;100140.44;5359619;32;44591;-68
2022/08/23 11:41:54;;;;;;;;;;;;;;;32.04;34.25;100144.88;5383759;32;36630;-74
2022/08/23 11:44:56;;;;;;;;;;;;;;;31.25;35.98;100142.66;5385950;32;34189;-67
2022/08/23 11:48:04;;;;;;;;;;;;;;;32.42;34.03;100137.00;5378922;32;34701;-86
2022/08/23 11:51:30;;;;;;;;;;;;;;;32.88;33.11;100141.63;5378298;32;36174;-66
2022/08/23 11:54:35;;;;;;;;;;;;;;;32.12;34.28;100135.69;5353868;32;34484;-74
2022/08/23 11:57:56;;;;;;;;;;;;;;;30.60;36.64;100143.81;5381910;32;34197;-79
2022/08/23 12:01:05;;;;;;;;;;;;;;;32.42;33.38;100139.72;5352614;32;34115;-66
2022/08/23 12:04:27;;;;;;;;;;;;;;;31.78;34.72;100141.03;5382184;32;35733;-68
2022/08/23 12:07:46;;;;;;;;;;;;;;;31.01;36.05;100139.34;5368542;32;34610;-69
2022/08/23 12:10:49;;;;;;;;;;;;;;;29.71;39.04;100140.56;5381929;32;44473;-69
2022/08/23 12:13:54;;;;;;;;;;;;;;;32.24;34.53;100134.03;5378904;32;35533;-71
2022/08/23 12:17:12;;;;;;;;;;;;;;;34.13;31.07;100128.63;5378206;32;34387;-70
2022/08/23 12:20:20;;;;;;;;;;;;;;;33.84;31.41;100128.16;5390641;32;44130;-69
2022/08/23 12:23:25;;;;;;;;;;;;;;;33.70;31.55;100134.72;5357560;32;34240;-72
2022/08/23 12:26:32;;;;;;;;;;;;;;;35.81;28.25;100131.22;5388688;32;34357;-69
2022/08/23 12:29:40;;;;;;;;;;;;;;;36.04;27.77;100131.31;5372854;32;35369;-71
2022/08/23 12:32:57;;;;;;;;;;;;;;;34.56;29.83;100136.09;5392204;32;45136;-72
2022/08/23 12:36:08;;;;;;;;;;;;;;;36.48;26.00;100131.09;5394209;32;34962;-69
2022/08/23 12:39:22;;;;;;;;;;;;;;;34.13;29.48;100136.78;5377969;32;44800;-80
2022/08/23 12:42:29;;;;;;;;;;;;;;;34.54;28.71;100135.50;5395420;32;34288;-73
2022/08/23 12:45:36;;;;;;;;;;;;;;;34.50;29.47;100140.56;5381344;32;35284;-71
2022/08/23 12:48:45;;;;;;;;;;;;;;;33.21;30.94;100147.00;5385068;32;34296;-74
2022/08/23 12:51:47;;;;;;;;;;;;;;;31.38;34.36;100145.44;5392456;32;45226;-73
2022/08/23 12:54:49;;;;;;;;;;;;;;;31.38;34.61;100150.03;5378270;32;33785;-76
2022/08/23 12:57:53;;;;;;;;;;;;;;;30.99;35.09;100146.00;5389609;32;34500;-72
2022/08/23 13:00:57;;;;;;;;;;;;;;;29.92;37.57;100148.72;5364330;32;34317;-71
2022/08/23 13:04:01;;;;;;;;;;;;;;;30.93;35.23;100149.50;5372321;32;34506;-73
2022/08/23 13:07:05;;;;;;;;;;;;;;;30.19;37.19;100144.44;5373077;32;35382;-73
2022/08/23 13:10:08;;;;;;;;;;;;;;;29.58;38.70;100146.66;5375376;32;35325;-71
2022/08/23 13:13:11;;;;;;;;;;;;;;;29.02;40.34;100146.25;5386916;32;45867;-74
2022/08/23 13:16:25;;;;;;;;;;;;;;;29.42;40.88;100147.66;5384101;32;34327;-70
2022/08/23 13:19:29;;;;;;;;;;;;;;;29.53;39.91;100141.78;5386787;32;35540;-70
2022/08/23 13:22:32;;;;;;;;;;;;;;;29.17;41.24;100149.81;5383301;32;34142;-70
2022/08/23 13:25:35;;;;;;;;;;;;;;;30.05;38.86;100146.16;5375378;32;34602;-70
2022/08/23 13:28:37;;;;;;;;;;;;;;;28.37;42.70;100157.62;5392936;32;33323;-71
2022/08/23 13:31:57;;;;;;;;;;;;;;;28.43;43.03;100152.34;5386326;32;34053;-69
2022/08/23 13:35:31;;;;;;;;;;;;;;;28.33;43.15;100151.75;5385032;32;34298;-73
2022/08/23 13:38:34;;;;;;;;;;;;;;;28.55;42.30;100150.06;5376075;32;35697;-77
2022/08/23 13:41:36;;;;;;;;;;;;;;;28.19;42.85;100144.38;5390700;32;35464;-76
2022/08/23 13:44:41;;;;;;;;;;;;;;;29.55;40.46;100137.03;5391125;32;33185;-70
2022/08/23 13:47:47;;;;;;;;;;;;;;;27.72;43.97;100131.84;5380651;32;34348;-70
2022/08/23 13:50:50;;;;;;;;;;;;;;;28.65;42.77;100145.22;5392255;32;35559;-75
2022/08/23 13:53:53;;;;;;;;;;;;;;;28.66;43.08;100140.66;5382590;32;35960;-70
2022/08/23 13:56:58;;;;;;;;;;;;;;;28.93;43.52;100133.84;5389793;32;35354;-73
2022/08/23 14:00:01;;;;;;;;;;;;;;;28.01;47.27;100144.66;5386950;32;35207;-76
2022/08/23 14:03:03;;;;;;;;;;;;;;;27.64;49.35;100139.97;5361964;32;34512;-76
2022/08/23 14:06:05;;;;;;;;;;;;;;;28.23;48.08;100146.56;5393754;32;33883;-71
2022/08/23 14:09:07;;;;;;;;;;;;;;;27.66;50.02;100143.31;5380649;32;34194;-78
2022/08/23 14:12:17;;;;;;;;;;;;;;;27.31;51.12;100150.03;5393844;32;34892;-75
2022/08/23 14:15:19;;;;;;;;;;;;;;;27.50;50.44;100144.22;5372241;32;44494;-70
2022/08/23 14:18:41;;;;;;;;;;;;;;;28.00;49.18;100151.94;5371203;32;45046;-70
2022/08/23 14:22:03;;;;;;;;;;;;;;;27.37;50.92;100143.94;5385619;32;35053;-71
2022/08/23 14:25:06;;;;;;;;;;;;;;;26.56;53.03;100158.41;5375369;32;33590;-71
2022/08/23 14:28:08;;;;;;;;;;;;;;;27.50;50.51;100147.78;5393607;32;34231;-78
2022/08/23 14:31:10;;;;;;;;;;;;;;;27.35;50.80;100138.72;5393074;32;37185;-75
2022/08/23 14:34:12;;;;;;;;;;;;;;;27.61;50.14;100137.62;5397806;32;35381;-71
2022/08/23 14:37:14;;;;;;;;;;;;;;;27.71;50.10;100149.09;5380640;32;35528;-69
2022/08/23 14:40:36;;;;;;;;;;;;;;;27.69;50.04;100138.44;5382875;32;35094;-77
2022/08/23 14:43:38;;;;;;;;;;;;;;;27.55;50.08;100141.84;5397055;32;34802;-76
2022/08/23 14:46:40;;;;;;;;;;;;;;;27.22;51.90;100141.13;5377669;32;37405;-77
2022/08/23 14:49:42;;;;;;;;;;;;;;;27.63;50.26;100127.47;5394716;32;35978;-72
2022/08/23 14:52:44;;;;;;;;;;;;;;;27.09;51.45;100132.75;5370279;32;35591;-76
2022/08/23 14:55:48;;;;;;;;;;;;;;;27.49;50.56;100129.06;5380531;32;34684;-75
2022/08/23 14:59:10;;;;;;;;;;;;;;;27.26;51.32;100135.22;5400571;32;46108;-71
2022/08/23 15:02:12;;;;;;;;;;;;;;;26.92;51.96;100140.88;5356620;32;35287;-76
2022/08/23 15:05:15;;;;;;;;;;;;;;;27.96;49.58;100139.00;5392507;32;35018;-77
2022/08/23 15:08:17;;;;;;;;;;;;;;;27.75;49.92;100142.28;5371234;32;34858;-76
2022/08/23 15:11:19;;;;;;;;;;;;;;;28.16;48.95;100151.00;5392967;32;35417;-75
2022/08/23 15:14:41;;;;;;;;;;;;;;;27.02;51.98;100143.34;5380539;32;45606;-71
2022/08/23 15:17:50;;;;;;;;;;;;;;;27.61;50.84;100133.06;5365584;32;34832;-75
2022/08/23 15:20:52;;;;;;;;;;;;;;;27.43;51.71;100133.28;5392859;32;34819;-76
2022/08/23 15:23:54;;;;;;;;;;;;;;;27.24;51.83;100137.28;5379627;32;34365;-79
2022/08/23 15:26:58;;;;;;;;;;;;;;;27.37;51.85;100138.53;5386674;32;36551;-75
2022/08/23 15:30:00;;;;;;;;;;;;;;;26.43;54.29;100140.88;5373662;32;35026;-70
2022/08/23 15:33:02;;;;;;;;;;;;;;;26.42;54.45;100144.59;5379357;32;34665;-76
2022/08/23 15:36:07;;;;;;;;;;;;;;;25.86;56.42;100140.78;5387805;32;34507;-75
2022/08/23 15:39:09;;;;;;;;;;;;;;;26.32;54.96;100141.19;5370790;32;34454;-76
2022/08/23 15:42:11;;;;;;;;;;;;;;;27.11;52.56;100150.44;5388607;32;45474;-76
2022/08/23 15:45:20;;;;;;;;;;;;;;;27.03;52.43;100142.34;5366052;32;34776;-76
2022/08/23 15:48:27;;;;;;;;;;;;;;;27.45;51.78;100154.72;5387274;32;34596;-70
2022/08/23 15:51:29;;;;;;;;;;;;;;;26.86;53.24;100149.63;5379332;32;34828;-71
2022/08/23 15:54:31;;;;;;;;;;;;;;;26.89;53.30;100148.44;5378115;32;36433;-72
2022/08/23 15:57:37;;;;;;;;;;;;;;;26.35;54.94;100151.63;5384388;32;34675;-70
2022/08/23 16:00:39;;;;;;;;;;;;;;;26.71;53.82;100146.75;5363303;32;34296;-69
2022/08/23 16:03:42;;;;;;;;;;;;;;;26.60;54.07;100154.34;5379410;32;45711;-76